Tie Siding, Wyoming
Current Conditions -  °F | °C
As of 6:53 AM on Thursday 27 Nov 2014 (Local Time) from KLAR Reporting Station
Clear Clear  
Wind Chill: 27°   Ceiling: Unl
Heat Index: 37°   Visibility: 10mi
Dew Point: 18°   Wind: 20mph
Humidity: 46%   Direction: 220°SW
Pressure: 30.22"   Gusts: 29mph
Location:  41.09°N, 105.49°W
Report Text: KLAR 271353Z AUTO 22017G25KT 10SM CLR 03/M08 A3022 RMK AO2 PK WND 22027/1334 SLP205 T00281078
Loading
Personal Weather Stations






























Interactive Weather Map New forecast layout! Learn more

10-Day Weather Forecast

Advertisements
Track Severe Weather on mobile